sensor_id;sensor_type;location;lat;lon;timestamp;P1;durP1;ratioP1;P2;durP2;ratioP2
52786;SDS011;38661;53.152;5.846;2023-03-21T00:00:38;209.55;;;50.20;;
52786;SDS011;38661;53.152;5.846;2023-03-21T00:03:04;208.50;;;49.72;;
52786;SDS011;38661;53.152;5.846;2023-03-21T00:05:29;152.93;;;41.17;;
52786;SDS011;38661;53.152;5.846;2023-03-21T00:07:55;187.68;;;48.08;;
52786;SDS011;38661;53.152;5.846;2023-03-21T00:10:21;247.80;;;53.45;;
52786;SDS011;38661;53.152;5.846;2023-03-21T00:12:47;178.48;;;47.88;;
52786;SDS011;38661;53.152;5.846;2023-03-21T00:15:19;178.35;;;46.72;;
52786;SDS011;38661;53.152;5.846;2023-03-21T00:17:45;118.03;;;37.05;;
52786;SDS011;38661;53.152;5.846;2023-03-21T00:20:14;135.55;;;38.97;;
52786;SDS011;38661;53.152;5.846;2023-03-21T00:22:41;124.78;;;40.90;;
52786;SDS011;38661;53.152;5.846;2023-03-21T00:25:07;117.25;;;38.42;;
52786;SDS011;38661;53.152;5.846;2023-03-21T00:27:35;120.97;;;39.47;;
52786;SDS011;38661;53.152;5.846;2023-03-21T00:30:01;93.95;;;32.95;;
52786;SDS011;38661;53.152;5.846;2023-03-21T00:32:27;92.05;;;33.00;;
52786;SDS011;38661;53.152;5.846;2023-03-21T00:34:53;98.28;;;34.55;;
52786;SDS011;38661;53.152;5.846;2023-03-21T00:37:19;83.80;;;33.00;;
52786;SDS011;38661;53.152;5.846;2023-03-21T00:39:46;108.10;;;36.25;;
52786;SDS011;38661;53.152;5.846;2023-03-21T00:42:16;106.30;;;36.78;;
52786;SDS011;38661;53.152;5.846;2023-03-21T00:44:42;105.13;;;38.15;;
52786;SDS011;38661;53.152;5.846;2023-03-21T00:47:10;121.45;;;39.03;;
52786;SDS011;38661;53.152;5.846;2023-03-21T00:49:36;129.88;;;44.22;;
52786;SDS011;38661;53.152;5.846;2023-03-21T00:52:03;167.88;;;47.72;;
52786;SDS011;38661;53.152;5.846;2023-03-21T00:54:31;132.73;;;42.80;;
52786;SDS011;38661;53.152;5.846;2023-03-21T00:56:57;207.70;;;54.88;;
52786;SDS011;38661;53.152;5.846;2023-03-21T00:59:23;203.52;;;56.90;;
52786;SDS011;38661;53.152;5.846;2023-03-21T01:01:49;154.23;;;50.60;;
52786;SDS011;38661;53.152;5.846;2023-03-21T01:04:17;214.95;;;56.58;;
52786;SDS011;38661;53.152;5.846;2023-03-21T01:06:45;205.15;;;55.15;;
52786;SDS011;38661;53.152;5.846;2023-03-21T01:09:16;178.55;;;50.22;;
52786;SDS011;38661;53.152;5.846;2023-03-21T01:11:43;143.80;;;46.35;;
52786;SDS011;38661;53.152;5.846;2023-03-21T01:14:10;163.57;;;50.55;;
52786;SDS011;38661;53.152;5.846;2023-03-21T01:16:36;163.57;;;48.25;;
52786;SDS011;38661;53.152;5.846;2023-03-21T01:19:03;128.98;;;43.95;;
52786;SDS011;38661;53.152;5.846;2023-03-21T01:21:31;140.38;;;46.08;;
52786;SDS011;38661;53.152;5.846;2023-03-21T01:23:57;124.93;;;44.13;;
52786;SDS011;38661;53.152;5.846;2023-03-21T01:26:23;124.82;;;44.13;;
52786;SDS011;38661;53.152;5.846;2023-03-21T01:28:48;115.60;;;41.20;;
52786;SDS011;38661;53.152;5.846;2023-03-21T01:31:15;99.55;;;38.58;;
52786;SDS011;38661;53.152;5.846;2023-03-21T01:33:41;115.82;;;39.00;;
52786;SDS011;38661;53.152;5.846;2023-03-21T01:36:18;117.95;;;43.38;;
52786;SDS011;38661;53.152;5.846;2023-03-21T01:38:46;104.43;;;37.90;;
52786;SDS011;38661;53.152;5.846;2023-03-21T01:41:54;110.10;;;38.75;;
52786;SDS011;38661;53.152;5.846;2023-03-21T01:44:03;84.75;;;32.00;;
52786;SDS011;38661;53.152;5.846;2023-03-21T01:46:34;96.13;;;35.70;;
52786;SDS011;38661;53.152;5.846;2023-03-21T01:49:08;91.28;;;36.72;;
52786;SDS011;38661;53.152;5.846;2023-03-21T01:51:37;93.30;;;36.45;;
52786;SDS011;38661;53.152;5.846;2023-03-21T01:54:06;80.13;;;33.40;;
52786;SDS011;38661;53.152;5.846;2023-03-21T01:56:38;81.38;;;32.40;;
52786;SDS011;38661;53.152;5.846;2023-03-21T01:59:26;79.70;;;31.95;;
52786;SDS011;38661;53.152;5.846;2023-03-21T02:01:58;71.10;;;30.83;;
52786;SDS011;38661;53.152;5.846;2023-03-21T02:04:32;68.07;;;31.35;;
52786;SDS011;38661;53.152;5.846;2023-03-21T02:07:01;75.85;;;31.77;;
52786;SDS011;38661;53.152;5.846;2023-03-21T02:09:32;63.13;;;29.60;;
52786;SDS011;38661;53.152;5.846;2023-03-21T02:12:01;71.05;;;31.10;;
52786;SDS011;38661;53.152;5.846;2023-03-21T02:14:27;65.32;;;28.55;;
52786;SDS011;38661;53.152;5.846;2023-03-21T02:17:02;61.08;;;26.90;;
52786;SDS011;38661;53.152;5.846;2023-03-21T02:38:59;52.47;;;22.60;;
52786;SDS011;38661;53.152;5.846;2023-03-21T02:41:38;50.60;;;21.85;;
52786;SDS011;38661;53.152;5.846;2023-03-21T02:44:20;41.13;;;20.00;;
52786;SDS011;38661;53.152;5.846;2023-03-21T02:46:52;42.10;;;19.45;;
52786;SDS011;38661;53.152;5.846;2023-03-21T02:50:06;41.53;;;19.35;;
52786;SDS011;38661;53.152;5.846;2023-03-21T02:52:21;43.22;;;20.45;;
52786;SDS011;38661;53.152;5.846;2023-03-21T02:54:52;38.33;;;17.88;;
52786;SDS011;38661;53.152;5.846;2023-03-21T02:57:20;45.38;;;19.48;;
52786;SDS011;38661;53.152;5.846;2023-03-21T02:59:47;42.45;;;20.02;;
52786;SDS011;38661;53.152;5.846;2023-03-21T03:02:15;47.50;;;20.45;;
52786;SDS011;38661;53.152;5.846;2023-03-21T03:04:47;53.53;;;22.10;;
52786;SDS011;38661;53.152;5.846;2023-03-21T03:10:31;55.65;;;22.15;;
52786;SDS011;38661;53.152;5.846;2023-03-21T03:16:06;51.75;;;20.27;;
52786;SDS011;38661;53.152;5.846;2023-03-21T03:18:55;55.45;;;21.40;;
52786;SDS011;38661;53.152;5.846;2023-03-21T03:21:31;54.05;;;22.58;;
52786;SDS011;38661;53.152;5.846;2023-03-21T03:24:10;59.35;;;21.80;;
52786;SDS011;38661;53.152;5.846;2023-03-21T03:29:29;59.50;;;23.88;;
52786;SDS011;38661;53.152;5.846;2023-03-21T03:32:01;65.05;;;23.67;;
52786;SDS011;38661;53.152;5.846;2023-03-21T03:34:36;57.97;;;21.25;;
52786;SDS011;38661;53.152;5.846;2023-03-21T03:37:06;60.45;;;23.70;;
52786;SDS011;38661;53.152;5.846;2023-03-21T03:39:49;60.97;;;24.33;;
52786;SDS011;38661;53.152;5.846;2023-03-21T03:42:29;68.15;;;23.95;;
52786;SDS011;38661;53.152;5.846;2023-03-21T03:47:40;62.40;;;23.27;;
52786;SDS011;38661;53.152;5.846;2023-03-21T03:51:08;75.10;;;25.35;;
52786;SDS011;38661;53.152;5.846;2023-03-21T03:55:44;72.13;;;23.45;;
52786;SDS011;38661;53.152;5.846;2023-03-21T03:58:11;66.80;;;24.80;;
52786;SDS011;38661;53.152;5.846;2023-03-21T04:00:38;71.43;;;24.13;;
52786;SDS011;38661;53.152;5.846;2023-03-21T04:03:05;73.40;;;23.33;;
52786;SDS011;38661;53.152;5.846;2023-03-21T04:05:31;71.07;;;24.60;;
52786;SDS011;38661;53.152;5.846;2023-03-21T04:07:57;71.85;;;26.33;;
52786;SDS011;38661;53.152;5.846;2023-03-21T04:10:23;84.13;;;24.98;;
52786;SDS011;38661;53.152;5.846;2023-03-21T04:12:48;72.65;;;24.55;;
52786;SDS011;38661;53.152;5.846;2023-03-21T04:15:14;73.70;;;23.77;;
52786;SDS011;38661;53.152;5.846;2023-03-21T04:17:40;83.22;;;26.17;;
52786;SDS011;38661;53.152;5.846;2023-03-21T04:20:06;92.30;;;26.05;;
52786;SDS011;38661;53.152;5.846;2023-03-21T04:22:33;76.25;;;24.83;;
52786;SDS011;38661;53.152;5.846;2023-03-21T04:24:59;80.85;;;25.48;;
52786;SDS011;38661;53.152;5.846;2023-03-21T04:27:29;92.47;;;27.05;;
52786;SDS011;38661;53.152;5.846;2023-03-21T04:29:56;95.05;;;27.38;;
52786;SDS011;38661;53.152;5.846;2023-03-21T04:32:22;91.60;;;26.58;;
52786;SDS011;38661;53.152;5.846;2023-03-21T04:34:48;94.82;;;28.48;;
52786;SDS011;38661;53.152;5.846;2023-03-21T04:37:18;75.95;;;26.77;;
52786;SDS011;38661;53.152;5.846;2023-03-21T04:39:47;86.90;;;25.25;;
52786;SDS011;38661;53.152;5.846;2023-03-21T04:42:14;74.38;;;25.67;;
52786;SDS011;38661;53.152;5.846;2023-03-21T04:44:42;59.95;;;22.35;;
52786;SDS011;38661;53.152;5.846;2023-03-21T04:47:09;76.32;;;25.75;;
52786;SDS011;38661;53.152;5.846;2023-03-21T04:49:37;74.75;;;26.25;;
52786;SDS011;38661;53.152;5.846;2023-03-21T04:52:03;70.72;;;26.63;;
52786;SDS011;38661;53.152;5.846;2023-03-21T04:54:29;68.78;;;25.63;;
52786;SDS011;38661;53.152;5.846;2023-03-21T04:56:56;59.35;;;23.40;;
52786;SDS011;38661;53.152;5.846;2023-03-21T04:59:22;68.15;;;23.75;;
52786;SDS011;38661;53.152;5.846;2023-03-21T05:01:48;56.85;;;23.10;;
52786;SDS011;38661;53.152;5.846;2023-03-21T05:04:14;65.78;;;23.50;;
52786;SDS011;38661;53.152;5.846;2023-03-21T05:06:40;64.38;;;22.52;;
52786;SDS011;38661;53.152;5.846;2023-03-21T05:09:06;57.05;;;21.92;;
52786;SDS011;38661;53.152;5.846;2023-03-21T05:11:33;47.50;;;20.77;;
52786;SDS011;38661;53.152;5.846;2023-03-21T05:14:02;52.15;;;21.30;;
52786;SDS011;38661;53.152;5.846;2023-03-21T05:16:32;54.95;;;21.63;;
52786;SDS011;38661;53.152;5.846;2023-03-21T05:18:58;49.28;;;20.80;;
52786;SDS011;38661;53.152;5.846;2023-03-21T05:21:31;52.78;;;20.70;;
52786;SDS011;38661;53.152;5.846;2023-03-21T05:24:05;48.45;;;20.60;;
52786;SDS011;38661;53.152;5.846;2023-03-21T05:26:36;51.35;;;22.40;;
52786;SDS011;38661;53.152;5.846;2023-03-21T05:29:02;51.40;;;21.15;;
52786;SDS011;38661;53.152;5.846;2023-03-21T05:31:28;48.17;;;20.75;;
52786;SDS011;38661;53.152;5.846;2023-03-21T05:33:54;61.17;;;23.00;;
52786;SDS011;38661;53.152;5.846;2023-03-21T05:36:19;47.92;;;21.13;;
52786;SDS011;38661;53.152;5.846;2023-03-21T05:38:45;46.67;;;20.60;;
52786;SDS011;38661;53.152;5.846;2023-03-21T05:41:11;43.80;;;21.90;;
52786;SDS011;38661;53.152;5.846;2023-03-21T05:43:38;60.33;;;23.90;;
52786;SDS011;38661;53.152;5.846;2023-03-21T05:46:04;59.83;;;23.45;;
52786;SDS011;38661;53.152;5.846;2023-03-21T05:48:30;63.78;;;26.13;;
52786;SDS011;38661;53.152;5.846;2023-03-21T05:50:55;60.22;;;25.48;;
52786;SDS011;38661;53.152;5.846;2023-03-21T05:53:21;61.90;;;25.58;;
52786;SDS011;38661;53.152;5.846;2023-03-21T05:55:47;64.43;;;25.92;;
52786;SDS011;38661;53.152;5.846;2023-03-21T05:58:13;62.10;;;26.08;;
52786;SDS011;38661;53.152;5.846;2023-03-21T06:00:38;69.55;;;26.17;;
52786;SDS011;38661;53.152;5.846;2023-03-21T06:03:04;61.75;;;24.48;;
52786;SDS011;38661;53.152;5.846;2023-03-21T06:05:30;59.97;;;25.58;;
52786;SDS011;38661;53.152;5.846;2023-03-21T06:07:56;66.72;;;25.40;;
52786;SDS011;38661;53.152;5.846;2023-03-21T06:10:22;57.40;;;22.05;;
52786;SDS011;38661;53.152;5.846;2023-03-21T06:12:48;61.40;;;23.83;;
52786;SDS011;38661;53.152;5.846;2023-03-21T06:15:14;61.08;;;22.63;;
52786;SDS011;38661;53.152;5.846;2023-03-21T06:17:39;48.65;;;20.58;;
52786;SDS011;38661;53.152;5.846;2023-03-21T06:20:06;48.45;;;21.75;;
52786;SDS011;38661;53.152;5.846;2023-03-21T06:22:32;47.63;;;20.20;;
52786;SDS011;38661;53.152;5.846;2023-03-21T06:24:59;48.28;;;20.85;;
52786;SDS011;38661;53.152;5.846;2023-03-21T06:27:25;45.47;;;19.67;;
52786;SDS011;38661;53.152;5.846;2023-03-21T06:29:51;45.42;;;20.77;;
52786;SDS011;38661;53.152;5.846;2023-03-21T06:32:17;47.13;;;21.20;;
52786;SDS011;38661;53.152;5.846;2023-03-21T06:34:43;50.03;;;21.63;;
52786;SDS011;38661;53.152;5.846;2023-03-21T06:37:08;45.28;;;22.52;;
52786;SDS011;38661;53.152;5.846;2023-03-21T06:39:34;47.72;;;21.20;;
52786;SDS011;38661;53.152;5.846;2023-03-21T06:42:00;49.58;;;21.80;;
52786;SDS011;38661;53.152;5.846;2023-03-21T06:44:26;52.65;;;23.00;;
52786;SDS011;38661;53.152;5.846;2023-03-21T06:46:52;57.58;;;23.58;;
52786;SDS011;38661;53.152;5.846;2023-03-21T06:49:18;56.65;;;23.58;;
52786;SDS011;38661;53.152;5.846;2023-03-21T06:51:45;48.20;;;22.70;;
52786;SDS011;38661;53.152;5.846;2023-03-21T06:54:11;58.75;;;24.85;;
52786;SDS011;38661;53.152;5.846;2023-03-21T06:56:38;50.28;;;23.75;;
52786;SDS011;38661;53.152;5.846;2023-03-21T06:59:05;51.03;;;22.58;;
52786;SDS011;38661;53.152;5.846;2023-03-21T07:01:32;58.67;;;25.27;;
52786;SDS011;38661;53.152;5.846;2023-03-21T07:03:58;53.80;;;23.92;;
52786;SDS011;38661;53.152;5.846;2023-03-21T07:06:24;49.38;;;23.42;;
52786;SDS011;38661;53.152;5.846;2023-03-21T07:08:51;44.63;;;22.58;;
52786;SDS011;38661;53.152;5.846;2023-03-21T07:11:18;51.97;;;23.65;;
52786;SDS011;38661;53.152;5.846;2023-03-21T07:13:44;44.40;;;22.95;;
52786;SDS011;38661;53.152;5.846;2023-03-21T07:16:10;35.65;;;19.27;;
52786;SDS011;38661;53.152;5.846;2023-03-21T07:18:36;42.25;;;22.20;;
52786;SDS011;38661;53.152;5.846;2023-03-21T07:21:02;41.03;;;21.25;;
52786;SDS011;38661;53.152;5.846;2023-03-21T07:23:28;39.20;;;20.15;;
52786;SDS011;38661;53.152;5.846;2023-03-21T07:25:54;48.50;;;22.70;;
52786;SDS011;38661;53.152;5.846;2023-03-21T07:28:20;45.17;;;21.58;;
52786;SDS011;38661;53.152;5.846;2023-03-21T07:30:51;34.50;;;18.63;;
52786;SDS011;38661;53.152;5.846;2023-03-21T07:33:19;36.97;;;19.77;;
52786;SDS011;38661;53.152;5.846;2023-03-21T07:35:44;28.95;;;17.05;;
52786;SDS011;38661;53.152;5.846;2023-03-21T07:38:10;31.23;;;17.75;;
52786;SDS011;38661;53.152;5.846;2023-03-21T07:40:37;33.30;;;17.80;;
52786;SDS011;38661;53.152;5.846;2023-03-21T07:43:03;29.60;;;17.85;;
52786;SDS011;38661;53.152;5.846;2023-03-21T07:45:29;35.92;;;19.60;;
52786;SDS011;38661;53.152;5.846;2023-03-21T07:47:54;37.92;;;20.35;;
52786;SDS011;38661;53.152;5.846;2023-03-21T07:50:20;40.08;;;20.33;;
52786;SDS011;38661;53.152;5.846;2023-03-21T07:52:47;37.88;;;21.02;;
52786;SDS011;38661;53.152;5.846;2023-03-21T07:55:12;38.00;;;20.63;;
52786;SDS011;38661;53.152;5.846;2023-03-21T07:57:38;40.13;;;22.30;;
52786;SDS011;38661;53.152;5.846;2023-03-21T08:00:05;41.28;;;22.63;;
52786;SDS011;38661;53.152;5.846;2023-03-21T08:02:31;38.38;;;21.05;;
52786;SDS011;38661;53.152;5.846;2023-03-21T08:04:57;37.92;;;21.77;;
52786;SDS011;38661;53.152;5.846;2023-03-21T08:07:22;36.47;;;20.50;;
52786;SDS011;38661;53.152;5.846;2023-03-21T08:09:48;36.35;;;20.95;;
52786;SDS011;38661;53.152;5.846;2023-03-21T08:12:14;38.38;;;23.17;;
52786;SDS011;38661;53.152;5.846;2023-03-21T08:14:40;36.63;;;20.80;;
52786;SDS011;38661;53.152;5.846;2023-03-21T08:17:06;39.78;;;22.02;;
52786;SDS011;38661;53.152;5.846;2023-03-21T08:19:33;42.25;;;24.33;;
52786;SDS011;38661;53.152;5.846;2023-03-21T08:21:59;37.08;;;23.85;;
52786;SDS011;38661;53.152;5.846;2023-03-21T08:24:26;39.85;;;24.75;;
52786;SDS011;38661;53.152;5.846;2023-03-21T08:26:52;32.38;;;19.38;;
52786;SDS011;38661;53.152;5.846;2023-03-21T08:29:18;37.28;;;23.27;;
52786;SDS011;38661;53.152;5.846;2023-03-21T08:31:45;39.97;;;23.50;;
52786;SDS011;38661;53.152;5.846;2023-03-21T08:34:11;41.00;;;25.00;;
52786;SDS011;38661;53.152;5.846;2023-03-21T08:36:37;40.45;;;24.88;;
52786;SDS011;38661;53.152;5.846;2023-03-21T08:39:03;43.67;;;26.05;;
52786;SDS011;38661;53.152;5.846;2023-03-21T08:41:30;39.17;;;25.20;;
52786;SDS011;38661;53.152;5.846;2023-03-21T08:43:57;45.67;;;27.27;;
52786;SDS011;38661;53.152;5.846;2023-03-21T08:46:22;41.05;;;26.38;;
52786;SDS011;38661;53.152;5.846;2023-03-21T08:48:48;41.17;;;27.98;;
52786;SDS011;38661;53.152;5.846;2023-03-21T08:51:14;43.85;;;28.67;;
52786;SDS011;38661;53.152;5.846;2023-03-21T08:53:39;43.15;;;25.63;;
52786;SDS011;38661;53.152;5.846;2023-03-21T08:56:06;46.53;;;27.42;;
52786;SDS011;38661;53.152;5.846;2023-03-21T08:58:32;45.38;;;25.98;;
52786;SDS011;38661;53.152;5.846;2023-03-21T09:00:58;45.08;;;24.90;;
52786;SDS011;38661;53.152;5.846;2023-03-21T09:03:23;38.08;;;24.02;;
52786;SDS011;38661;53.152;5.846;2023-03-21T09:05:54;37.30;;;24.33;;
52786;SDS011;38661;53.152;5.846;2023-03-21T09:08:21;39.50;;;21.92;;
52786;SDS011;38661;53.152;5.846;2023-03-21T09:10:56;31.20;;;21.35;;
52786;SDS011;38661;53.152;5.846;2023-03-21T09:13:22;34.67;;;19.08;;
52786;SDS011;38661;53.152;5.846;2023-03-21T09:15:48;34.97;;;18.92;;
52786;SDS011;38661;53.152;5.846;2023-03-21T09:18:14;32.60;;;17.92;;
52786;SDS011;38661;53.152;5.846;2023-03-21T09:20:43;27.45;;;17.55;;
52786;SDS011;38661;53.152;5.846;2023-03-21T09:23:11;31.95;;;20.23;;
52786;SDS011;38661;53.152;5.846;2023-03-21T09:25:38;28.70;;;17.08;;
52786;SDS011;38661;53.152;5.846;2023-03-21T09:28:05;29.58;;;16.80;;
52786;SDS011;38661;53.152;5.846;2023-03-21T09:30:32;29.73;;;16.95;;
52786;SDS011;38661;53.152;5.846;2023-03-21T09:33:00;26.48;;;15.98;;
52786;SDS011;38661;53.152;5.846;2023-03-21T09:35:27;27.85;;;16.23;;
52786;SDS011;38661;53.152;5.846;2023-03-21T09:37:54;25.27;;;16.15;;
52786;SDS011;38661;53.152;5.846;2023-03-21T09:41:24;23.75;;;15.13;;
52786;SDS011;38661;53.152;5.846;2023-03-21T09:45:47;27.67;;;16.95;;
52786;SDS011;38661;53.152;5.846;2023-03-21T09:48:35;25.45;;;15.55;;
52786;SDS011;38661;53.152;5.846;2023-03-21T09:51:04;23.88;;;15.00;;
52786;SDS011;38661;53.152;5.846;2023-03-21T09:53:37;24.50;;;15.10;;
52786;SDS011;38661;53.152;5.846;2023-03-21T09:56:07;28.17;;;14.30;;
52786;SDS011;38661;53.152;5.846;2023-03-21T09:58:38;19.63;;;13.10;;
52786;SDS011;38661;53.152;5.846;2023-03-21T10:01:11;21.60;;;13.07;;
52786;SDS011;38661;53.152;5.846;2023-03-21T10:03:55;23.75;;;15.15;;
52786;SDS011;38661;53.152;5.846;2023-03-21T10:06:24;23.42;;;13.32;;
52786;SDS011;38661;53.152;5.846;2023-03-21T10:08:56;22.17;;;13.65;;
52786;SDS011;38661;53.152;5.846;2023-03-21T10:12:03;27.05;;;15.48;;
52786;SDS011;38661;53.152;5.846;2023-03-21T10:22:38;26.38;;;15.25;;
52786;SDS011;38661;53.152;5.846;2023-03-21T10:25:04;23.33;;;14.38;;
52786;SDS011;38661;53.152;5.846;2023-03-21T10:27:33;18.48;;;13.15;;
52786;SDS011;38661;53.152;5.846;2023-03-21T10:30:01;20.05;;;14.73;;
52786;SDS011;38661;53.152;5.846;2023-03-21T10:32:31;23.67;;;15.48;;
52786;SDS011;38661;53.152;5.846;2023-03-21T10:34:58;21.98;;;13.30;;
52786;SDS011;38661;53.152;5.846;2023-03-21T10:37:24;24.33;;;14.35;;
52786;SDS011;38661;53.152;5.846;2023-03-21T10:39:51;22.38;;;14.07;;
52786;SDS011;38661;53.152;5.846;2023-03-21T10:42:20;23.75;;;14.65;;
52786;SDS011;38661;53.152;5.846;2023-03-21T10:44:49;22.13;;;12.88;;
52786;SDS011;38661;53.152;5.846;2023-03-21T10:47:24;25.10;;;13.80;;
52786;SDS011;38661;53.152;5.846;2023-03-21T10:49:52;18.50;;;12.55;;
52786;SDS011;38661;53.152;5.846;2023-03-21T10:52:20;18.42;;;12.88;;
52786;SDS011;38661;53.152;5.846;2023-03-21T10:54:47;19.15;;;12.10;;
52786;SDS011;38661;53.152;5.846;2023-03-21T10:57:18;138.65;;;46.22;;
52786;SDS011;38661;53.152;5.846;2023-03-21T10:59:57;22.55;;;11.98;;
52786;SDS011;38661;53.152;5.846;2023-03-21T11:02:27;18.48;;;10.82;;
52786;SDS011;38661;53.152;5.846;2023-03-21T11:04:56;18.48;;;11.15;;
52786;SDS011;38661;53.152;5.846;2023-03-21T11:07:29;14.48;;;10.18;;
52786;SDS011;38661;53.152;5.846;2023-03-21T11:09:57;16.83;;;10.60;;
52786;SDS011;38661;53.152;5.846;2023-03-21T11:12:32;17.40;;;10.82;;
52786;SDS011;38661;53.152;5.846;2023-03-21T11:17:54;15.52;;;9.50;;
52786;SDS011;38661;53.152;5.846;2023-03-21T11:20:21;15.52;;;9.00;;
52786;SDS011;38661;53.152;5.846;2023-03-21T11:22:47;18.00;;;10.80;;
52786;SDS011;38661;53.152;5.846;2023-03-21T11:25:22;18.17;;;9.57;;
52786;SDS011;38661;53.152;5.846;2023-03-21T11:27:51;15.50;;;10.18;;
52786;SDS011;38661;53.152;5.846;2023-03-21T11:30:23;15.95;;;9.82;;
52786;SDS011;38661;53.152;5.846;2023-03-21T11:32:55;17.15;;;10.00;;
52786;SDS011;38661;53.152;5.846;2023-03-21T11:35:27;16.40;;;10.85;;
52786;SDS011;38661;53.152;5.846;2023-03-21T11:37:56;17.48;;;10.77;;
52786;SDS011;38661;53.152;5.846;2023-03-21T11:40:23;19.02;;;10.68;;
52786;SDS011;38661;53.152;5.846;2023-03-21T11:42:55;19.77;;;11.48;;
52786;SDS011;38661;53.152;5.846;2023-03-21T11:45:29;18.25;;;10.13;;
52786;SDS011;38661;53.152;5.846;2023-03-21T11:47:57;22.20;;;12.75;;
52786;SDS011;38661;53.152;5.846;2023-03-21T11:50:35;19.05;;;11.48;;
52786;SDS011;38661;53.152;5.846;2023-03-21T11:55:44;16.30;;;9.85;;
52786;SDS011;38661;53.152;5.846;2023-03-21T11:58:32;16.83;;;10.30;;
52786;SDS011;38661;53.152;5.846;2023-03-21T12:01:03;17.50;;;10.43;;
52786;SDS011;38661;53.152;5.846;2023-03-21T12:14:49;28.75;;;19.88;;
52786;SDS011;38661;53.152;5.846;2023-03-21T12:17:32;21.52;;;12.70;;
52786;SDS011;38661;53.152;5.846;2023-03-21T12:20:20;19.92;;;12.15;;
52786;SDS011;38661;53.152;5.846;2023-03-21T12:25:49;22.30;;;16.23;;
52786;SDS011;38661;53.152;5.846;2023-03-21T12:33:51;31.27;;;19.85;;
52786;SDS011;38661;53.152;5.846;2023-03-21T12:36:28;23.08;;;14.50;;
52786;SDS011;38661;53.152;5.846;2023-03-21T12:45:23;34.78;;;22.55;;
52786;SDS011;38661;53.152;5.846;2023-03-21T12:48:10;33.40;;;20.08;;
52786;SDS011;38661;53.152;5.846;2023-03-21T12:50:52;24.17;;;16.73;;
52786;SDS011;38661;53.152;5.846;2023-03-21T12:56:06;30.00;;;18.38;;
52786;SDS011;38661;53.152;5.846;2023-03-21T12:58:40;21.15;;;16.80;;
52786;SDS011;38661;53.152;5.846;2023-03-21T13:01:14;21.48;;;13.15;;
52786;SDS011;38661;53.152;5.846;2023-03-21T13:03:44;18.45;;;13.65;;
52786;SDS011;38661;53.152;5.846;2023-03-21T13:06:15;18.42;;;13.32;;
52786;SDS011;38661;53.152;5.846;2023-03-21T13:08:45;19.65;;;13.63;;
52786;SDS011;38661;53.152;5.846;2023-03-21T13:11:18;22.27;;;15.95;;
52786;SDS011;38661;53.152;5.846;2023-03-21T13:16:47;25.42;;;17.02;;
52786;SDS011;38661;53.152;5.846;2023-03-21T13:22:13;21.05;;;15.07;;
52786;SDS011;38661;53.152;5.846;2023-03-21T13:24:51;20.55;;;14.48;;
52786;SDS011;38661;53.152;5.846;2023-03-21T13:29:50;21.75;;;15.15;;
52786;SDS011;38661;53.152;5.846;2023-03-21T13:32:27;19.15;;;14.02;;
52786;SDS011;38661;53.152;5.846;2023-03-21T13:37:57;19.27;;;12.98;;
52786;SDS011;38661;53.152;5.846;2023-03-21T13:46:11;18.48;;;13.48;;
52786;SDS011;38661;53.152;5.846;2023-03-21T13:51:20;22.80;;;15.88;;
52786;SDS011;38661;53.152;5.846;2023-03-21T13:59:10;20.95;;;14.55;;
52786;SDS011;38661;53.152;5.846;2023-03-21T14:04:50;21.23;;;14.05;;
52786;SDS011;38661;53.152;5.846;2023-03-21T14:07:24;25.92;;;16.02;;
52786;SDS011;38661;53.152;5.846;2023-03-21T14:09:54;17.85;;;14.35;;
52786;SDS011;38661;53.152;5.846;2023-03-21T14:12:41;22.20;;;13.95;;
52786;SDS011;38661;53.152;5.846;2023-03-21T14:15:22;17.90;;;12.38;;
52786;SDS011;38661;53.152;5.846;2023-03-21T14:17:53;23.65;;;14.32;;
52786;SDS011;38661;53.152;5.846;2023-03-21T14:22:54;21.42;;;12.13;;
52786;SDS011;38661;53.152;5.846;2023-03-21T14:25:21;21.75;;;14.77;;
52786;SDS011;38661;53.152;5.846;2023-03-21T14:27:53;21.50;;;12.95;;
52786;SDS011;38661;53.152;5.846;2023-03-21T14:30:25;22.25;;;15.82;;
52786;SDS011;38661;53.152;5.846;2023-03-21T14:32:59;32.88;;;22.23;;
52786;SDS011;38661;53.152;5.846;2023-03-21T14:35:40;33.75;;;20.10;;
52786;SDS011;38661;53.152;5.846;2023-03-21T14:38:07;19.70;;;15.07;;
52786;SDS011;38661;53.152;5.846;2023-03-21T14:40:49;18.63;;;14.88;;
52786;SDS011;38661;53.152;5.846;2023-03-21T14:43:18;17.52;;;13.55;;
52786;SDS011;38661;53.152;5.846;2023-03-21T14:45:46;20.17;;;15.55;;
52786;SDS011;38661;53.152;5.846;2023-03-21T14:48:15;19.40;;;15.05;;
52786;SDS011;38661;53.152;5.846;2023-03-21T14:53:17;50.63;;;27.17;;
52786;SDS011;38661;53.152;5.846;2023-03-21T14:55:51;16.52;;;12.13;;
52786;SDS011;38661;53.152;5.846;2023-03-21T14:58:23;22.10;;;11.73;;
52786;SDS011;38661;53.152;5.846;2023-03-21T15:00:50;17.25;;;11.18;;
52786;SDS011;38661;53.152;5.846;2023-03-21T15:03:17;26.02;;;14.45;;
52786;SDS011;38661;53.152;5.846;2023-03-21T15:05:46;21.42;;;11.60;;
52786;SDS011;38661;53.152;5.846;2023-03-21T15:08:13;28.73;;;17.52;;
52786;SDS011;38661;53.152;5.846;2023-03-21T15:10:41;25.95;;;16.17;;
52786;SDS011;38661;53.152;5.846;2023-03-21T15:13:18;25.40;;;15.60;;
52786;SDS011;38661;53.152;5.846;2023-03-21T15:15:47;19.02;;;14.25;;
52786;SDS011;38661;53.152;5.846;2023-03-21T15:18:14;20.10;;;14.60;;
52786;SDS011;38661;53.152;5.846;2023-03-21T15:20:43;20.48;;;14.63;;
52786;SDS011;38661;53.152;5.846;2023-03-21T15:23:21;21.10;;;14.15;;
52786;SDS011;38661;53.152;5.846;2023-03-21T15:26:03;19.40;;;13.68;;
52786;SDS011;38661;53.152;5.846;2023-03-21T15:28:30;23.10;;;15.43;;
52786;SDS011;38661;53.152;5.846;2023-03-21T15:30:58;20.38;;;14.93;;
52786;SDS011;38661;53.152;5.846;2023-03-21T15:33:24;26.55;;;15.88;;
52786;SDS011;38661;53.152;5.846;2023-03-21T15:35:51;23.65;;;15.90;;
52786;SDS011;38661;53.152;5.846;2023-03-21T15:41:13;23.20;;;14.65;;
52786;SDS011;38661;53.152;5.846;2023-03-21T15:43:41;23.05;;;16.50;;
52786;SDS011;38661;53.152;5.846;2023-03-21T15:46:15;27.35;;;17.23;;
52786;SDS011;38661;53.152;5.846;2023-03-21T15:48:42;25.42;;;16.65;;
52786;SDS011;38661;53.152;5.846;2023-03-21T15:51:21;25.60;;;17.58;;
52786;SDS011;38661;53.152;5.846;2023-03-21T15:53:49;22.90;;;16.30;;
52786;SDS011;38661;53.152;5.846;2023-03-21T15:56:18;24.13;;;16.75;;
52786;SDS011;38661;53.152;5.846;2023-03-21T15:58:47;22.67;;;15.93;;
52786;SDS011;38661;53.152;5.846;2023-03-21T16:01:20;26.80;;;18.10;;
52786;SDS011;38661;53.152;5.846;2023-03-21T16:03:56;21.75;;;15.73;;
52786;SDS011;38661;53.152;5.846;2023-03-21T16:06:34;23.90;;;16.00;;
52786;SDS011;38661;53.152;5.846;2023-03-21T16:09:12;26.08;;;16.55;;
52786;SDS011;38661;53.152;5.846;2023-03-21T16:11:48;19.60;;;14.13;;
52786;SDS011;38661;53.152;5.846;2023-03-21T16:14:15;22.63;;;14.85;;
52786;SDS011;38661;53.152;5.846;2023-03-21T16:16:43;21.08;;;14.30;;
52786;SDS011;38661;53.152;5.846;2023-03-21T16:19:09;20.73;;;15.25;;
52786;SDS011;38661;53.152;5.846;2023-03-21T16:21:34;23.25;;;15.55;;
52786;SDS011;38661;53.152;5.846;2023-03-21T16:24:02;21.98;;;14.35;;
52786;SDS011;38661;53.152;5.846;2023-03-21T16:26:29;20.30;;;13.65;;
52786;SDS011;38661;53.152;5.846;2023-03-21T16:28:57;21.10;;;13.75;;